sensor_id;sensor_type;location;lat;lon;timestamp;pressure;altitude;pressure_sealevel;temperature;humidity
75998;BME280;64685;48.762;44.822;2023-02-20T00:01:35;100229.41;;;2.36;70.31
75998;BME280;64685;48.762;44.822;2023-02-20T00:06:38;100230.25;;;2.41;70.25
75998;BME280;64685;48.762;44.822;2023-02-20T00:11:40;100226.91;;;2.44;70.35
75998;BME280;64685;48.762;44.822;2023-02-20T00:16:46;100213.59;;;2.61;70.20
75998;BME280;64685;48.762;44.822;2023-02-20T00:21:49;100201.19;;;2.64;70.24
75998;BME280;64685;48.762;44.822;2023-02-20T00:26:53;100190.47;;;2.62;70.01
75998;BME280;64685;48.762;44.822;2023-02-20T00:31:57;100189.34;;;2.63;70.31
75998;BME280;64685;48.762;44.822;2023-02-20T00:37:00;100198.41;;;2.64;70.02
75998;BME280;64685;48.762;44.822;2023-02-20T00:42:02;100194.00;;;2.68;70.09
75998;BME280;64685;48.762;44.822;2023-02-20T00:47:05;100188.75;;;2.66;70.00
75998;BME280;64685;48.762;44.822;2023-02-20T00:52:07;100194.28;;;2.66;69.51
75998;BME280;64685;48.762;44.822;2023-02-20T00:57:10;100186.00;;;2.66;69.26
75998;BME280;64685;48.762;44.822;2023-02-20T01:02:12;100189.66;;;2.52;69.49
75998;BME280;64685;48.762;44.822;2023-02-20T01:07:15;100181.75;;;2.40;69.66
75998;BME280;64685;48.762;44.822;2023-02-20T01:12:17;100179.22;;;2.54;70.37
75998;BME280;64685;48.762;44.822;2023-02-20T01:17:20;100183.59;;;2.55;69.46
75998;BME280;64685;48.762;44.822;2023-02-20T01:22:23;100191.59;;;2.56;70.05
75998;BME280;64685;48.762;44.822;2023-02-20T01:27:26;100201.00;;;2.50;69.95
75998;BME280;64685;48.762;44.822;2023-02-20T01:32:28;100194.94;;;2.43;69.82
75998;BME280;64685;48.762;44.822;2023-02-20T01:37:31;100192.22;;;2.38;69.62
75998;BME280;64685;48.762;44.822;2023-02-20T01:42:34;100190.03;;;2.40;70.24
75998;BME280;64685;48.762;44.822;2023-02-20T01:47:36;100203.53;;;2.37;70.37
75998;BME280;64685;48.762;44.822;2023-02-20T01:52:39;100200.31;;;2.20;70.42
75998;BME280;64685;48.762;44.822;2023-02-20T01:57:50;100207.44;;;2.21;70.55
75998;BME280;64685;48.762;44.822;2023-02-20T02:03:14;100213.75;;;2.26;70.58
75998;BME280;64685;48.762;44.822;2023-02-20T02:08:24;100218.97;;;2.38;70.16
75998;BME280;64685;48.762;44.822;2023-02-20T02:13:32;100223.09;;;2.40;70.38
75998;BME280;64685;48.762;44.822;2023-02-20T02:18:51;100226.06;;;2.49;69.90
75998;BME280;64685;48.762;44.822;2023-02-20T02:46:03;100242.94;;;2.27;70.18
75998;BME280;64685;48.762;44.822;2023-02-20T02:51:20;100241.81;;;2.38;70.07
75998;BME280;64685;48.762;44.822;2023-02-20T02:56:35;100237.66;;;2.41;69.98
75998;BME280;64685;48.762;44.822;2023-02-20T03:01:42;100243.16;;;2.46;70.29
75998;BME280;64685;48.762;44.822;2023-02-20T03:06:46;100228.56;;;2.45;69.61
75998;BME280;64685;48.762;44.822;2023-02-20T03:11:50;100239.59;;;2.50;70.03
75998;BME280;64685;48.762;44.822;2023-02-20T03:27:48;100237.84;;;2.64;69.02
75998;BME280;64685;48.762;44.822;2023-02-20T03:32:58;100249.66;;;2.70;69.17
75998;BME280;64685;48.762;44.822;2023-02-20T03:38:24;100232.28;;;2.79;68.86
75998;BME280;64685;48.762;44.822;2023-02-20T03:43:46;100237.75;;;2.84;69.03
75998;BME280;64685;48.762;44.822;2023-02-20T03:48:54;100228.63;;;2.89;68.88
75998;BME280;64685;48.762;44.822;2023-02-20T03:54:00;100237.78;;;2.79;68.55
75998;BME280;64685;48.762;44.822;2023-02-20T03:59:12;100225.16;;;2.68;68.50
75998;BME280;64685;48.762;44.822;2023-02-20T04:04:20;100231.44;;;2.79;68.59
75998;BME280;64685;48.762;44.822;2023-02-20T04:09:29;100232.00;;;2.76;68.11
75998;BME280;64685;48.762;44.822;2023-02-20T04:14:35;100233.44;;;2.63;68.05
75998;BME280;64685;48.762;44.822;2023-02-20T04:19:39;100225.47;;;2.62;68.41
75998;BME280;64685;48.762;44.822;2023-02-20T04:24:47;100219.22;;;2.41;68.09
75998;BME280;64685;48.762;44.822;2023-02-20T04:29:51;100224.19;;;2.39;68.22
75998;BME280;64685;48.762;44.822;2023-02-20T04:34:54;100217.81;;;2.49;68.50
75998;BME280;64685;48.762;44.822;2023-02-20T04:39:56;100230.75;;;2.97;68.27
75998;BME280;64685;48.762;44.822;2023-02-20T04:44:59;100225.28;;;2.92;67.79
75998;BME280;64685;48.762;44.822;2023-02-20T04:50:05;100234.78;;;3.19;67.67
75998;BME280;64685;48.762;44.822;2023-02-20T04:55:08;100224.44;;;3.35;67.14
75998;BME280;64685;48.762;44.822;2023-02-20T05:00:11;100238.72;;;4.04;66.16
75998;BME280;64685;48.762;44.822;2023-02-20T05:05:21;100236.16;;;4.78;64.83
75998;BME280;64685;48.762;44.822;2023-02-20T05:10:25;100230.59;;;5.70;63.12
75998;BME280;64685;48.762;44.822;2023-02-20T05:15:30;100223.75;;;6.00;61.53
75998;BME280;64685;48.762;44.822;2023-02-20T05:20:33;100242.22;;;5.72;61.06
75998;BME280;64685;48.762;44.822;2023-02-20T05:26:09;100241.28;;;5.95;60.08
75998;BME280;64685;48.762;44.822;2023-02-20T05:31:12;100251.69;;;5.53;60.23
75998;BME280;64685;48.762;44.822;2023-02-20T05:36:18;100248.69;;;5.12;60.81
75998;BME280;64685;48.762;44.822;2023-02-20T05:41:21;100252.78;;;4.96;60.70
75998;BME280;64685;48.762;44.822;2023-02-20T05:46:25;100235.69;;;4.94;60.95
75998;BME280;64685;48.762;44.822;2023-02-20T05:51:28;100229.63;;;4.92;60.80
75998;BME280;64685;48.762;44.822;2023-02-20T05:56:33;100209.25;;;5.39;60.48
75998;BME280;64685;48.762;44.822;2023-02-20T06:01:36;100203.22;;;6.01;60.28
75998;BME280;64685;48.762;44.822;2023-02-20T06:06:40;100206.94;;;7.70;58.05
75998;BME280;64685;48.762;44.822;2023-02-20T06:11:53;100203.53;;;8.73;55.22
75998;BME280;64685;48.762;44.822;2023-02-20T06:16:56;100199.34;;;9.18;54.47
75998;BME280;64685;48.762;44.822;2023-02-20T06:21:59;100204.28;;;9.81;52.94
75998;BME280;64685;48.762;44.822;2023-02-20T06:27:02;100208.31;;;8.81;53.84
75998;BME280;64685;48.762;44.822;2023-02-20T06:32:05;100213.31;;;8.23;53.69
75998;BME280;64685;48.762;44.822;2023-02-20T06:37:09;100197.81;;;7.78;54.06
75998;BME280;64685;48.762;44.822;2023-02-20T06:42:12;100199.16;;;7.59;54.29
75998;BME280;64685;48.762;44.822;2023-02-20T06:47:14;100183.31;;;7.59;54.56
75998;BME280;64685;48.762;44.822;2023-02-20T06:52:17;100175.28;;;9.56;52.22
75998;BME280;64685;48.762;44.822;2023-02-20T06:57:19;100183.75;;;11.06;48.98
75998;BME280;64685;48.762;44.822;2023-02-20T07:02:22;100176.44;;;9.38;50.72
75998;BME280;64685;48.762;44.822;2023-02-20T07:07:24;100187.34;;;9.94;50.40
75998;BME280;64685;48.762;44.822;2023-02-20T07:12:31;100191.00;;;9.69;50.45
75998;BME280;64685;48.762;44.822;2023-02-20T07:17:41;100168.22;;;9.42;50.50
75998;BME280;64685;48.762;44.822;2023-02-20T07:22:50;100169.53;;;9.53;50.73
75998;BME280;64685;48.762;44.822;2023-02-20T07:27:53;100155.13;;;9.42;50.54
75998;BME280;64685;48.762;44.822;2023-02-20T07:32:55;100144.13;;;9.54;49.96
75998;BME280;64685;48.762;44.822;2023-02-20T07:37:58;100139.38;;;9.21;50.58
75998;BME280;64685;48.762;44.822;2023-02-20T07:43:00;100152.38;;;10.14;50.06
75998;BME280;64685;48.762;44.822;2023-02-20T07:54:43;100140.19;;;13.07;46.57
75998;BME280;64685;48.762;44.822;2023-02-20T07:59:46;100142.91;;;13.43;45.44
75998;BME280;64685;48.762;44.822;2023-02-20T08:04:49;100156.19;;;11.58;46.76
75998;BME280;64685;48.762;44.822;2023-02-20T08:09:52;100142.44;;;9.70;49.59
75998;BME280;64685;48.762;44.822;2023-02-20T08:14:54;100141.47;;;9.66;49.50
75998;BME280;64685;48.762;44.822;2023-02-20T08:19:57;100120.16;;;9.62;49.27
75998;BME280;64685;48.762;44.822;2023-02-20T08:25:00;100108.84;;;9.58;49.21
75998;BME280;64685;48.762;44.822;2023-02-20T08:30:07;100129.84;;;8.71;51.18
75998;BME280;64685;48.762;44.822;2023-02-20T08:35:12;100122.53;;;8.27;51.97
75998;BME280;64685;48.762;44.822;2023-02-20T08:40:14;100114.88;;;8.33;52.31
75998;BME280;64685;48.762;44.822;2023-02-20T08:45:17;100106.34;;;8.38;52.79
75998;BME280;64685;48.762;44.822;2023-02-20T08:50:20;100078.28;;;8.90;51.94
75998;BME280;64685;48.762;44.822;2023-02-20T08:55:22;100080.50;;;9.56;51.79
75998;BME280;64685;48.762;44.822;2023-02-20T09:00:25;100072.44;;;9.55;50.83
75998;BME280;64685;48.762;44.822;2023-02-20T09:05:28;100080.72;;;9.00;51.69
75998;BME280;64685;48.762;44.822;2023-02-20T09:10:30;100077.78;;;8.97;52.10
75998;BME280;64685;48.762;44.822;2023-02-20T09:15:33;100051.75;;;9.64;51.06
75998;BME280;64685;48.762;44.822;2023-02-20T09:20:41;100047.50;;;9.58;50.98
75998;BME280;64685;48.762;44.822;2023-02-20T09:25:44;100043.00;;;10.20;49.94
75998;BME280;64685;48.762;44.822;2023-02-20T09:30:47;100040.16;;;10.99;49.05
75998;BME280;64685;48.762;44.822;2023-02-20T09:35:50;100049.97;;;11.70;47.23
75998;BME280;64685;48.762;44.822;2023-02-20T09:40:58;100044.03;;;11.39;47.80
75998;BME280;64685;48.762;44.822;2023-02-20T09:46:17;100034.72;;;10.82;47.56
75998;BME280;64685;48.762;44.822;2023-02-20T09:51:24;100036.28;;;10.71;47.98
75998;BME280;64685;48.762;44.822;2023-02-20T09:56:34;100041.41;;;10.11;48.68
75998;BME280;64685;48.762;44.822;2023-02-20T10:01:48;100031.97;;;9.49;48.81
75998;BME280;64685;48.762;44.822;2023-02-20T10:06:59;100026.44;;;9.32;49.82
75998;BME280;64685;48.762;44.822;2023-02-20T10:17:40;100008.63;;;9.16;50.04
75998;BME280;64685;48.762;44.822;2023-02-20T10:23:21;99999.75;;;9.22;50.30
75998;BME280;64685;48.762;44.822;2023-02-20T10:28:29;99995.38;;;9.04;50.39
75998;BME280;64685;48.762;44.822;2023-02-20T10:33:34;99981.81;;;8.69;51.06
75998;BME280;64685;48.762;44.822;2023-02-20T10:38:59;99988.22;;;8.44;51.86
75998;BME280;64685;48.762;44.822;2023-02-20T10:44:15;99984.44;;;8.65;51.91
75998;BME280;64685;48.762;44.822;2023-02-20T10:49:34;99981.66;;;8.65;52.15
75998;BME280;64685;48.762;44.822;2023-02-20T10:54:42;99984.13;;;8.50;51.94
75998;BME280;64685;48.762;44.822;2023-02-20T10:59:53;99975.59;;;8.55;52.49
75998;BME280;64685;48.762;44.822;2023-02-20T11:05:04;99985.72;;;9.56;51.38
75998;BME280;64685;48.762;44.822;2023-02-20T11:10:08;99972.03;;;9.72;50.55
75998;BME280;64685;48.762;44.822;2023-02-20T11:15:18;99962.97;;;9.46;51.17
75998;BME280;64685;48.762;44.822;2023-02-20T11:25:37;99969.34;;;9.00;51.59
75998;BME280;64685;48.762;44.822;2023-02-20T11:30:41;99946.88;;;9.05;51.31
75998;BME280;64685;48.762;44.822;2023-02-20T11:35:50;99954.63;;;8.83;51.32
75998;BME280;64685;48.762;44.822;2023-02-20T11:46:18;99955.31;;;8.20;52.68
75998;BME280;64685;48.762;44.822;2023-02-20T11:51:39;99954.16;;;8.21;52.83
75998;BME280;64685;48.762;44.822;2023-02-20T12:07:24;99959.31;;;7.80;53.11
75998;BME280;64685;48.762;44.822;2023-02-20T12:12:29;99967.97;;;7.40;54.21
75998;BME280;64685;48.762;44.822;2023-02-20T12:17:44;99977.63;;;7.42;54.57
75998;BME280;64685;48.762;44.822;2023-02-20T12:23:19;99982.25;;;7.55;54.67
75998;BME280;64685;48.762;44.822;2023-02-20T12:34:43;99988.44;;;7.13;55.16
75998;BME280;64685;48.762;44.822;2023-02-20T12:39:35;99972.88;;;7.04;56.30
75998;BME280;64685;48.762;44.822;2023-02-20T12:55:31;100003.91;;;6.84;56.16
75998;BME280;64685;48.762;44.822;2023-02-20T13:05:43;100020.25;;;6.63;56.88
75998;BME280;64685;48.762;44.822;2023-02-20T13:10:54;100019.44;;;6.27;57.62
75998;BME280;64685;48.762;44.822;2023-02-20T13:16:06;100030.72;;;6.31;58.05
75998;BME280;64685;48.762;44.822;2023-02-20T13:21:14;100031.56;;;6.18;59.11
75998;BME280;64685;48.762;44.822;2023-02-20T13:36:44;100025.84;;;6.01;59.27
75998;BME280;64685;48.762;44.822;2023-02-20T13:46:57;100017.31;;;5.70;60.75
75998;BME280;64685;48.762;44.822;2023-02-20T13:52:00;100015.25;;;5.76;59.97
75998;BME280;64685;48.762;44.822;2023-02-20T13:57:16;100001.41;;;5.62;60.52
75998;BME280;64685;48.762;44.822;2023-02-20T14:02:21;99998.13;;;5.47;61.14
75998;BME280;64685;48.762;44.822;2023-02-20T14:07:38;99999.03;;;5.42;61.34
75998;BME280;64685;48.762;44.822;2023-02-20T14:12:45;100002.13;;;5.27;61.89
75998;BME280;64685;48.762;44.822;2023-02-20T14:17:55;99990.00;;;5.23;62.12
75998;BME280;64685;48.762;44.822;2023-02-20T14:23:07;99987.03;;;5.20;62.79
75998;BME280;64685;48.762;44.822;2023-02-20T14:28:13;99988.84;;;5.11;62.77
75998;BME280;64685;48.762;44.822;2023-02-20T14:33:27;99981.34;;;4.98;63.02
75998;BME280;64685;48.762;44.822;2023-02-20T14:38:50;99991.22;;;5.04;63.86
75998;BME280;64685;48.762;44.822;2023-02-20T14:43:57;99988.25;;;5.14;62.73
75998;BME280;64685;48.762;44.822;2023-02-20T14:49:15;99990.25;;;4.81;64.05
75998;BME280;64685;48.762;44.822;2023-02-20T14:54:21;99994.69;;;4.64;64.66
75998;BME280;64685;48.762;44.822;2023-02-20T14:59:33;99995.13;;;4.52;64.51
75998;BME280;64685;48.762;44.822;2023-02-20T15:04:36;99999.72;;;4.25;65.14
75998;BME280;64685;48.762;44.822;2023-02-20T15:09:42;100000.22;;;4.27;65.53
75998;BME280;64685;48.762;44.822;2023-02-20T15:14:53;100007.34;;;4.14;65.87
75998;BME280;64685;48.762;44.822;2023-02-20T15:19:57;100010.53;;;4.03;65.86
75998;BME280;64685;48.762;44.822;2023-02-20T15:30:17;100021.22;;;4.09;66.36
75998;BME280;64685;48.762;44.822;2023-02-20T15:35:24;100016.41;;;3.96;66.57
75998;BME280;64685;48.762;44.822;2023-02-20T15:40:32;100007.09;;;3.92;66.99
75998;BME280;64685;48.762;44.822;2023-02-20T15:45:35;100014.41;;;3.83;66.87
75998;BME280;64685;48.762;44.822;2023-02-20T15:50:38;100018.84;;;3.79;66.90
75998;BME280;64685;48.762;44.822;2023-02-20T15:55:41;100027.28;;;3.69;67.21
75998;BME280;64685;48.762;44.822;2023-02-20T16:00:45;100024.19;;;3.52;67.44
75998;BME280;64685;48.762;44.822;2023-02-20T16:05:48;100033.97;;;3.40;68.11
75998;BME280;64685;48.762;44.822;2023-02-20T16:10:51;100032.09;;;3.35;67.92
75998;BME280;64685;48.762;44.822;2023-02-20T16:15:55;100034.38;;;3.28;68.38
75998;BME280;64685;48.762;44.822;2023-02-20T16:20:58;100024.81;;;3.21;68.74
75998;BME280;64685;48.762;44.822;2023-02-20T16:26:01;100030.44;;;3.11;68.36
75998;BME280;64685;48.762;44.822;2023-02-20T16:31:04;100020.41;;;2.91;68.66
75998;BME280;64685;48.762;44.822;2023-02-20T16:36:07;100041.66;;;2.91;68.91
75998;BME280;64685;48.762;44.822;2023-02-20T16:41:17;100046.97;;;2.82;68.89
75998;BME280;64685;48.762;44.822;2023-02-20T16:46:20;100044.63;;;2.66;68.68
75998;BME280;64685;48.762;44.822;2023-02-20T16:51:39;100035.91;;;2.54;69.56
75998;BME280;64685;48.762;44.822;2023-02-20T16:56:41;100037.88;;;2.48;68.87
75998;BME280;64685;48.762;44.822;2023-02-20T17:01:44;100031.28;;;2.44;69.60
75998;BME280;64685;48.762;44.822;2023-02-20T17:06:46;100039.59;;;2.39;69.48
75998;BME280;64685;48.762;44.822;2023-02-20T17:11:49;100036.63;;;2.31;69.64
75998;BME280;64685;48.762;44.822;2023-02-20T17:16:51;100034.72;;;2.26;69.28
75998;BME280;64685;48.762;44.822;2023-02-20T17:21:54;100050.19;;;2.22;69.08
75998;BME280;64685;48.762;44.822;2023-02-20T17:26:57;100057.84;;;2.25;69.52
75998;BME280;64685;48.762;44.822;2023-02-20T17:32:00;100059.28;;;2.18;69.17
75998;BME280;64685;48.762;44.822;2023-02-20T17:37:03;100073.31;;;2.16;69.13
75998;BME280;64685;48.762;44.822;2023-02-20T17:42:06;100086.78;;;2.23;68.79
75998;BME280;64685;48.762;44.822;2023-02-20T17:47:09;100063.91;;;2.27;68.68
75998;BME280;64685;48.762;44.822;2023-02-20T17:52:11;100074.91;;;2.27;67.95
75998;BME280;64685;48.762;44.822;2023-02-20T17:57:17;100070.47;;;2.36;68.24
75998;BME280;64685;48.762;44.822;2023-02-20T18:02:20;100076.84;;;2.32;67.47
75998;BME280;64685;48.762;44.822;2023-02-20T18:07:23;100081.78;;;2.30;67.33
75998;BME280;64685;48.762;44.822;2023-02-20T18:12:25;100072.47;;;2.26;67.01
75998;BME280;64685;48.762;44.822;2023-02-20T18:17:28;100086.00;;;2.17;67.35
75998;BME280;64685;48.762;44.822;2023-02-20T18:22:31;100081.66;;;2.06;67.31
75998;BME280;64685;48.762;44.822;2023-02-20T18:27:33;100091.34;;;1.94;66.54
75998;BME280;64685;48.762;44.822;2023-02-20T18:32:36;100084.75;;;1.90;66.61
75998;BME280;64685;48.762;44.822;2023-02-20T18:37:39;100084.25;;;1.83;66.17
75998;BME280;64685;48.762;44.822;2023-02-20T18:42:41;100086.22;;;1.72;66.11
75998;BME280;64685;48.762;44.822;2023-02-20T18:47:50;100087.88;;;1.63;66.16
75998;BME280;64685;48.762;44.822;2023-02-20T18:52:53;100089.28;;;1.56;65.65
75998;BME280;64685;48.762;44.822;2023-02-20T18:57:57;100091.78;;;1.47;65.83
75998;BME280;64685;48.762;44.822;2023-02-20T19:03:00;100092.06;;;1.46;65.51
75998;BME280;64685;48.762;44.822;2023-02-20T19:08:04;100095.13;;;1.39;65.09
75998;BME280;64685;48.762;44.822;2023-02-20T19:13:06;100087.41;;;1.26;65.32
75998;BME280;64685;48.762;44.822;2023-02-20T19:18:11;100090.72;;;1.28;64.72
75998;BME280;64685;48.762;44.822;2023-02-20T19:23:14;100100.91;;;1.23;64.57
75998;BME280;64685;48.762;44.822;2023-02-20T19:28:17;100095.69;;;1.16;64.38
75998;BME280;64685;48.762;44.822;2023-02-20T19:33:19;100087.47;;;1.11;64.51
75998;BME280;64685;48.762;44.822;2023-02-20T19:38:22;100086.88;;;1.09;63.87
75998;BME280;64685;48.762;44.822;2023-02-20T19:43:25;100089.63;;;1.14;64.00
75998;BME280;64685;48.762;44.822;2023-02-20T19:48:28;100070.38;;;1.14;63.24
75998;BME280;64685;48.762;44.822;2023-02-20T19:53:31;100070.69;;;1.08;63.48
75998;BME280;64685;48.762;44.822;2023-02-20T19:58:36;100079.47;;;1.10;62.91
75998;BME280;64685;48.762;44.822;2023-02-20T20:03:45;100076.19;;;1.13;63.04
75998;BME280;64685;48.762;44.822;2023-02-20T20:08:48;100070.69;;;1.08;62.77
75998;BME280;64685;48.762;44.822;2023-02-20T20:14:11;100067.66;;;1.09;63.06
75998;BME280;64685;48.762;44.822;2023-02-20T20:19:13;100075.34;;;1.02;62.79
75998;BME280;64685;48.762;44.822;2023-02-20T20:24:17;100071.25;;;0.90;62.41
75998;BME280;64685;48.762;44.822;2023-02-20T20:29:20;100064.38;;;0.92;61.99
75998;BME280;64685;48.762;44.822;2023-02-20T20:34:22;100050.09;;;0.85;62.46
75998;BME280;64685;48.762;44.822;2023-02-20T20:39:26;100051.72;;;0.86;61.88
75998;BME280;64685;48.762;44.822;2023-02-20T20:44:29;100051.47;;;0.88;61.69
75998;BME280;64685;48.762;44.822;2023-02-20T20:49:31;100044.59;;;0.85;61.56
75998;BME280;64685;48.762;44.822;2023-02-20T20:54:35;100053.41;;;0.87;61.70
75998;BME280;64685;48.762;44.822;2023-02-20T20:59:39;100053.94;;;0.79;61.49
75998;BME280;64685;48.762;44.822;2023-02-20T21:04:44;100049.81;;;0.72;61.33
75998;BME280;64685;48.762;44.822;2023-02-20T21:09:47;100055.31;;;0.77;61.44
75998;BME280;64685;48.762;44.822;2023-02-20T21:14:50;100050.94;;;0.71;61.30
75998;BME280;64685;48.762;44.822;2023-02-20T21:19:54;100061.09;;;0.70;61.53
75998;BME280;64685;48.762;44.822;2023-02-20T21:24:57;100042.69;;;0.71;61.52
75998;BME280;64685;48.762;44.822;2023-02-20T21:29:59;100026.47;;;0.64;61.87
75998;BME280;64685;48.762;44.822;2023-02-20T21:35:03;100034.72;;;0.64;61.84
75998;BME280;64685;48.762;44.822;2023-02-20T21:40:07;100025.94;;;0.72;61.93
75998;BME280;64685;48.762;44.822;2023-02-20T21:45:09;100031.97;;;0.64;61.73
75998;BME280;64685;48.762;44.822;2023-02-20T21:50:14;100027.56;;;0.63;61.56
75998;BME280;64685;48.762;44.822;2023-02-20T21:55:18;100031.41;;;0.62;62.06
75998;BME280;64685;48.762;44.822;2023-02-20T22:00:21;100026.50;;;0.59;61.75
75998;BME280;64685;48.762;44.822;2023-02-20T22:05:24;100027.28;;;0.60;61.89
75998;BME280;64685;48.762;44.822;2023-02-20T22:10:26;100027.03;;;0.56;61.79
75998;BME280;64685;48.762;44.822;2023-02-20T22:15:47;100035.28;;;0.61;61.97
75998;BME280;64685;48.762;44.822;2023-02-20T22:21:08;100040.75;;;0.61;61.64
75998;BME280;64685;48.762;44.822;2023-02-20T22:26:29;100040.50;;;0.58;61.70
75998;BME280;64685;48.762;44.822;2023-02-20T22:31:50;100023.75;;;0.49;62.53
75998;BME280;64685;48.762;44.822;2023-02-20T22:37:12;100027.03;;;0.46;62.70
75998;BME280;64685;48.762;44.822;2023-02-20T22:42:33;100020.41;;;0.47;62.85
75998;BME280;64685;48.762;44.822;2023-02-20T22:47:54;100013.03;;;0.48;62.95
75998;BME280;64685;48.762;44.822;2023-02-20T22:53:15;99992.41;;;0.35;62.86
75998;BME280;64685;48.762;44.822;2023-02-20T22:58:36;100003.41;;;0.35;63.04
75998;BME280;64685;48.762;44.822;2023-02-20T23:03:58;100025.66;;;0.44;63.10
75998;BME280;64685;48.762;44.822;2023-02-20T23:09:19;100022.09;;;0.53;63.28
75998;BME280;64685;48.762;44.822;2023-02-20T23:14:40;100011.91;;;0.54;63.26
75998;BME280;64685;48.762;44.822;2023-02-20T23:20:06;100005.88;;;0.52;63.06
75998;BME280;64685;48.762;44.822;2023-02-20T23:25:28;100011.66;;;0.50;62.83
75998;BME280;64685;48.762;44.822;2023-02-20T23:30:49;100006.44;;;0.74;62.65
75998;BME280;64685;48.762;44.822;2023-02-20T23:36:10;99989.88;;;1.04;62.73
75998;BME280;64685;48.762;44.822;2023-02-20T23:41:31;100000.03;;;1.08;62.46
75998;BME280;64685;48.762;44.822;2023-02-20T23:46:52;99996.75;;;1.06;61.93
75998;BME280;64685;48.762;44.822;2023-02-20T23:52:13;100001.16;;;0.92;62.45
75998;BME280;64685;48.762;44.822;2023-02-20T23:57:36;99981.41;;;0.80;62.46
